sensor_id;sensor_type;location;lat;lon;timestamp;temperature;humidity
11188;DHT22;5650;52.700;7.306;2023-02-01T00:00:35;5.30;99.90
11188;DHT22;5650;52.700;7.306;2023-02-01T00:03:02;5.30;99.90
11188;DHT22;5650;52.700;7.306;2023-02-01T00:05:31;5.30;99.90
11188;DHT22;5650;52.700;7.306;2023-02-01T00:08:05;5.30;99.90
11188;DHT22;5650;52.700;7.306;2023-02-01T00:10:35;5.30;99.90
11188;DHT22;5650;52.700;7.306;2023-02-01T00:13:06;5.30;99.90
11188;DHT22;5650;52.700;7.306;2023-02-01T00:15:33;5.40;99.90
11188;DHT22;5650;52.700;7.306;2023-02-01T00:18:00;5.40;99.90
11188;DHT22;5650;52.700;7.306;2023-02-01T00:20:30;5.40;99.90
11188;DHT22;5650;52.700;7.306;2023-02-01T00:23:00;5.40;99.90
11188;DHT22;5650;52.700;7.306;2023-02-01T00:25:35;5.40;99.90
11188;DHT22;5650;52.700;7.306;2023-02-01T00:28:04;5.40;99.90
11188;DHT22;5650;52.700;7.306;2023-02-01T00:30:31;5.40;99.90
11188;DHT22;5650;52.700;7.306;2023-02-01T00:33:05;5.40;99.90
11188;DHT22;5650;52.700;7.306;2023-02-01T00:35:34;5.40;99.90
11188;DHT22;5650;52.700;7.306;2023-02-01T00:38:03;5.50;99.90
11188;DHT22;5650;52.700;7.306;2023-02-01T00:40:30;5.40;99.90
11188;DHT22;5650;52.700;7.306;2023-02-01T00:43:05;5.40;99.90
11188;DHT22;5650;52.700;7.306;2023-02-01T00:45:35;5.50;99.90
11188;DHT22;5650;52.700;7.306;2023-02-01T00:48:05;5.50;99.90
11188;DHT22;5650;52.700;7.306;2023-02-01T00:50:44;5.50;99.90
11188;DHT22;5650;52.700;7.306;2023-02-01T00:53:20;5.50;99.90
11188;DHT22;5650;52.700;7.306;2023-02-01T00:55:59;5.50;99.90
11188;DHT22;5650;52.700;7.306;2023-02-01T00:58:27;5.50;99.90
11188;DHT22;5650;52.700;7.306;2023-02-01T01:01:04;5.50;99.90
11188;DHT22;5650;52.700;7.306;2023-02-01T01:03:35;5.50;99.90
11188;DHT22;5650;52.700;7.306;2023-02-01T01:06:04;5.50;99.90
11188;DHT22;5650;52.700;7.306;2023-02-01T01:08:34;5.60;99.90
11188;DHT22;5650;52.700;7.306;2023-02-01T01:11:10;5.60;99.90
11188;DHT22;5650;52.700;7.306;2023-02-01T01:13:39;5.60;99.90
11188;DHT22;5650;52.700;7.306;2023-02-01T01:16:23;5.50;99.90
11188;DHT22;5650;52.700;7.306;2023-02-01T01:18:51;5.60;99.90
11188;DHT22;5650;52.700;7.306;2023-02-01T01:21:19;5.50;99.90
11188;DHT22;5650;52.700;7.306;2023-02-01T01:23:47;5.60;99.90
11188;DHT22;5650;52.700;7.306;2023-02-01T01:26:21;5.60;99.90
11188;DHT22;5650;52.700;7.306;2023-02-01T01:28:51;5.60;99.90
11188;DHT22;5650;52.700;7.306;2023-02-01T01:31:20;5.60;99.90
11188;DHT22;5650;52.700;7.306;2023-02-01T01:33:53;5.60;99.90
11188;DHT22;5650;52.700;7.306;2023-02-01T01:36:21;5.60;99.90
11188;DHT22;5650;52.700;7.306;2023-02-01T01:38:55;5.60;99.90
11188;DHT22;5650;52.700;7.306;2023-02-01T01:41:31;5.60;99.90
11188;DHT22;5650;52.700;7.306;2023-02-01T01:44:04;5.60;99.90
11188;DHT22;5650;52.700;7.306;2023-02-01T01:46:36;5.60;99.90
11188;DHT22;5650;52.700;7.306;2023-02-01T01:49:10;5.60;99.90
11188;DHT22;5650;52.700;7.306;2023-02-01T01:51:50;5.70;99.90
11188;DHT22;5650;52.700;7.306;2023-02-01T01:54:20;5.70;99.90
11188;DHT22;5650;52.700;7.306;2023-02-01T01:56:53;5.70;99.90
11188;DHT22;5650;52.700;7.306;2023-02-01T01:59:36;5.80;99.90
11188;DHT22;5650;52.700;7.306;2023-02-01T02:02:07;5.70;99.90
11188;DHT22;5650;52.700;7.306;2023-02-01T02:04:35;5.80;99.90
11188;DHT22;5650;52.700;7.306;2023-02-01T02:07:05;5.80;99.90
11188;DHT22;5650;52.700;7.306;2023-02-01T02:09:40;5.80;99.90
11188;DHT22;5650;52.700;7.306;2023-02-01T02:12:20;5.80;99.90
11188;DHT22;5650;52.700;7.306;2023-02-01T02:14:52;5.80;99.90
11188;DHT22;5650;52.700;7.306;2023-02-01T02:17:31;5.80;99.90
11188;DHT22;5650;52.700;7.306;2023-02-01T02:20:30;5.80;99.90
11188;DHT22;5650;52.700;7.306;2023-02-01T02:29:42;5.90;99.90
11188;DHT22;5650;52.700;7.306;2023-02-01T02:35:20;5.90;99.90
11188;DHT22;5650;52.700;7.306;2023-02-01T02:37:58;5.90;99.90
11188;DHT22;5650;52.700;7.306;2023-02-01T02:40:32;6.00;99.90
11188;DHT22;5650;52.700;7.306;2023-02-01T02:43:05;6.00;99.90
11188;DHT22;5650;52.700;7.306;2023-02-01T02:45:55;6.00;99.90
11188;DHT22;5650;52.700;7.306;2023-02-01T02:48:55;6.00;99.90
11188;DHT22;5650;52.700;7.306;2023-02-01T02:51:30;6.00;99.90
11188;DHT22;5650;52.700;7.306;2023-02-01T02:54:29;6.00;99.90
11188;DHT22;5650;52.700;7.306;2023-02-01T02:57:20;6.00;99.90
11188;DHT22;5650;52.700;7.306;2023-02-01T03:00:09;6.00;99.90
11188;DHT22;5650;52.700;7.306;2023-02-01T03:02:55;6.00;99.90
11188;DHT22;5650;52.700;7.306;2023-02-01T03:05:42;6.00;99.90
11188;DHT22;5650;52.700;7.306;2023-02-01T03:08:13;6.00;99.90
11188;DHT22;5650;52.700;7.306;2023-02-01T03:10:54;5.90;99.90
11188;DHT22;5650;52.700;7.306;2023-02-01T03:13:41;5.90;99.90
11188;DHT22;5650;52.700;7.306;2023-02-01T03:16:21;5.90;99.90
11188;DHT22;5650;52.700;7.306;2023-02-01T03:19:02;5.80;99.90
11188;DHT22;5650;52.700;7.306;2023-02-01T03:21:37;5.80;99.90
11188;DHT22;5650;52.700;7.306;2023-02-01T03:24:13;5.80;99.90
11188;DHT22;5650;52.700;7.306;2023-02-01T03:26:53;5.80;99.90
11188;DHT22;5650;52.700;7.306;2023-02-01T03:29:40;5.70;99.90
11188;DHT22;5650;52.700;7.306;2023-02-01T03:32:12;5.80;99.90
11188;DHT22;5650;52.700;7.306;2023-02-01T03:34:39;5.70;99.90
11188;DHT22;5650;52.700;7.306;2023-02-01T03:37:09;5.80;99.90
11188;DHT22;5650;52.700;7.306;2023-02-01T03:39:46;5.70;99.90
11188;DHT22;5650;52.700;7.306;2023-02-01T03:42:21;5.70;99.90
11188;DHT22;5650;52.700;7.306;2023-02-01T03:45:03;5.70;99.90
11188;DHT22;5650;52.700;7.306;2023-02-01T03:47:35;5.60;99.90
11188;DHT22;5650;52.700;7.306;2023-02-01T03:50:05;5.60;99.90
11188;DHT22;5650;52.700;7.306;2023-02-01T03:52:38;5.70;99.90
11188;DHT22;5650;52.700;7.306;2023-02-01T03:55:09;5.70;99.90
11188;DHT22;5650;52.700;7.306;2023-02-01T03:57:53;5.70;99.90
11188;DHT22;5650;52.700;7.306;2023-02-01T04:00:26;5.70;99.90
11188;DHT22;5650;52.700;7.306;2023-02-01T04:02:53;5.70;99.90
11188;DHT22;5650;52.700;7.306;2023-02-01T04:05:23;5.80;99.90
11188;DHT22;5650;52.700;7.306;2023-02-01T04:07:59;5.70;99.90
11188;DHT22;5650;52.700;7.306;2023-02-01T04:10:28;5.70;99.90
11188;DHT22;5650;52.700;7.306;2023-02-01T04:13:01;5.80;99.90
11188;DHT22;5650;52.700;7.306;2023-02-01T04:15:34;5.80;99.90
11188;DHT22;5650;52.700;7.306;2023-02-01T04:18:01;5.80;99.90
11188;DHT22;5650;52.700;7.306;2023-02-01T04:20:34;5.80;99.90
11188;DHT22;5650;52.700;7.306;2023-02-01T04:23:01;5.90;99.90
11188;DHT22;5650;52.700;7.306;2023-02-01T04:25:38;5.90;99.90
11188;DHT22;5650;52.700;7.306;2023-02-01T04:28:08;5.90;99.90
11188;DHT22;5650;52.700;7.306;2023-02-01T04:30:38;5.90;99.90
11188;DHT22;5650;52.700;7.306;2023-02-01T04:33:11;5.90;99.90
11188;DHT22;5650;52.700;7.306;2023-02-01T04:35:45;5.90;99.90
11188;DHT22;5650;52.700;7.306;2023-02-01T04:38:12;5.90;99.90
11188;DHT22;5650;52.700;7.306;2023-02-01T04:40:47;5.90;99.90
11188;DHT22;5650;52.700;7.306;2023-02-01T04:43:15;5.90;99.90
11188;DHT22;5650;52.700;7.306;2023-02-01T04:45:48;5.90;99.90
11188;DHT22;5650;52.700;7.306;2023-02-01T04:48:17;5.90;99.90
11188;DHT22;5650;52.700;7.306;2023-02-01T04:50:48;5.90;99.90
11188;DHT22;5650;52.700;7.306;2023-02-01T04:53:18;5.90;99.90
11188;DHT22;5650;52.700;7.306;2023-02-01T04:55:53;5.90;99.90
11188;DHT22;5650;52.700;7.306;2023-02-01T04:58:23;5.90;99.90
11188;DHT22;5650;52.700;7.306;2023-02-01T05:00:50;5.90;99.90
11188;DHT22;5650;52.700;7.306;2023-02-01T05:03:19;5.90;99.90
11188;DHT22;5650;52.700;7.306;2023-02-01T05:05:47;5.90;99.90
11188;DHT22;5650;52.700;7.306;2023-02-01T05:08:17;5.90;99.90
11188;DHT22;5650;52.700;7.306;2023-02-01T05:10:54;5.90;99.90
11188;DHT22;5650;52.700;7.306;2023-02-01T05:13:21;5.90;99.90
11188;DHT22;5650;52.700;7.306;2023-02-01T05:16:08;5.90;99.90
11188;DHT22;5650;52.700;7.306;2023-02-01T05:18:38;5.90;99.90
11188;DHT22;5650;52.700;7.306;2023-02-01T05:21:12;5.90;99.90
11188;DHT22;5650;52.700;7.306;2023-02-01T05:23:39;5.90;99.90
11188;DHT22;5650;52.700;7.306;2023-02-01T05:26:24;6.00;99.90
11188;DHT22;5650;52.700;7.306;2023-02-01T05:28:58;6.00;99.90
11188;DHT22;5650;52.700;7.306;2023-02-01T05:31:28;6.00;99.90
11188;DHT22;5650;52.700;7.306;2023-02-01T05:34:01;6.00;99.90
11188;DHT22;5650;52.700;7.306;2023-02-01T05:36:47;6.00;99.90
11188;DHT22;5650;52.700;7.306;2023-02-01T05:39:14;6.00;99.90
11188;DHT22;5650;52.700;7.306;2023-02-01T05:41:45;6.10;99.90
11188;DHT22;5650;52.700;7.306;2023-02-01T05:44:16;6.10;99.90
11188;DHT22;5650;52.700;7.306;2023-02-01T05:46:49;6.10;99.90
11188;DHT22;5650;52.700;7.306;2023-02-01T05:49:20;6.10;99.90
11188;DHT22;5650;52.700;7.306;2023-02-01T05:52:00;6.10;99.90
11188;DHT22;5650;52.700;7.306;2023-02-01T05:54:31;6.10;99.90
11188;DHT22;5650;52.700;7.306;2023-02-01T05:57:00;6.10;99.90
11188;DHT22;5650;52.700;7.306;2023-02-01T05:59:43;6.10;99.90
11188;DHT22;5650;52.700;7.306;2023-02-01T06:02:11;6.20;99.90
11188;DHT22;5650;52.700;7.306;2023-02-01T06:04:38;6.20;99.90
11188;DHT22;5650;52.700;7.306;2023-02-01T06:07:05;6.20;99.90
11188;DHT22;5650;52.700;7.306;2023-02-01T06:09:40;6.20;99.90
11188;DHT22;5650;52.700;7.306;2023-02-01T06:12:15;6.20;99.90
11188;DHT22;5650;52.700;7.306;2023-02-01T06:14:48;6.20;99.90
11188;DHT22;5650;52.700;7.306;2023-02-01T06:17:15;6.20;99.90
11188;DHT22;5650;52.700;7.306;2023-02-01T06:19:42;6.20;99.90
11188;DHT22;5650;52.700;7.306;2023-02-01T06:22:10;6.20;99.90
11188;DHT22;5650;52.700;7.306;2023-02-01T06:24:37;6.20;99.90
11188;DHT22;5650;52.700;7.306;2023-02-01T06:27:13;6.20;99.90
11188;DHT22;5650;52.700;7.306;2023-02-01T06:29:42;6.20;99.90
11188;DHT22;5650;52.700;7.306;2023-02-01T06:32:09;6.20;99.90
11188;DHT22;5650;52.700;7.306;2023-02-01T06:34:37;6.20;99.90
11188;DHT22;5650;52.700;7.306;2023-02-01T06:37:21;6.20;99.90
11188;DHT22;5650;52.700;7.306;2023-02-01T06:39:54;6.30;99.90
11188;DHT22;5650;52.700;7.306;2023-02-01T06:42:24;6.30;99.90
11188;DHT22;5650;52.700;7.306;2023-02-01T06:44:52;6.30;99.90
11188;DHT22;5650;52.700;7.306;2023-02-01T06:47:25;6.30;99.90
11188;DHT22;5650;52.700;7.306;2023-02-01T06:49:55;6.30;99.90
11188;DHT22;5650;52.700;7.306;2023-02-01T06:52:22;6.30;99.90
11188;DHT22;5650;52.700;7.306;2023-02-01T06:54:49;6.30;99.90
11188;DHT22;5650;52.700;7.306;2023-02-01T06:57:16;6.30;99.90
11188;DHT22;5650;52.700;7.306;2023-02-01T06:59:46;6.30;99.90
11188;DHT22;5650;52.700;7.306;2023-02-01T07:02:14;6.40;99.90
11188;DHT22;5650;52.700;7.306;2023-02-01T07:04:47;6.40;99.90
11188;DHT22;5650;52.700;7.306;2023-02-01T07:07:17;6.40;99.90
11188;DHT22;5650;52.700;7.306;2023-02-01T07:09:48;6.40;99.90
11188;DHT22;5650;52.700;7.306;2023-02-01T07:12:15;6.40;99.90
11188;DHT22;5650;52.700;7.306;2023-02-01T07:14:49;6.40;99.90
11188;DHT22;5650;52.700;7.306;2023-02-01T07:17:22;6.40;99.90
11188;DHT22;5650;52.700;7.306;2023-02-01T07:19:49;6.50;99.90
11188;DHT22;5650;52.700;7.306;2023-02-01T07:22:22;6.50;99.90
11188;DHT22;5650;52.700;7.306;2023-02-01T07:24:52;6.50;99.90
11188;DHT22;5650;52.700;7.306;2023-02-01T07:27:24;6.50;99.90
11188;DHT22;5650;52.700;7.306;2023-02-01T07:29:51;6.50;99.90
11188;DHT22;5650;52.700;7.306;2023-02-01T07:32:35;6.50;99.90
11188;DHT22;5650;52.700;7.306;2023-02-01T07:35:02;6.50;99.90
11188;DHT22;5650;52.700;7.306;2023-02-01T07:37:29;6.50;99.90
11188;DHT22;5650;52.700;7.306;2023-02-01T07:39:56;6.50;99.90
11188;DHT22;5650;52.700;7.306;2023-02-01T07:42:35;6.60;99.90
11188;DHT22;5650;52.700;7.306;2023-02-01T07:45:10;6.60;99.90
11188;DHT22;5650;52.700;7.306;2023-02-01T07:47:46;6.60;99.90
11188;DHT22;5650;52.700;7.306;2023-02-01T07:50:13;6.60;99.90
11188;DHT22;5650;52.700;7.306;2023-02-01T07:52:40;6.60;99.90
11188;DHT22;5650;52.700;7.306;2023-02-01T07:55:14;6.60;99.90
11188;DHT22;5650;52.700;7.306;2023-02-01T07:57:48;6.60;99.90
11188;DHT22;5650;52.700;7.306;2023-02-01T08:00:16;6.60;99.90
11188;DHT22;5650;52.700;7.306;2023-02-01T08:03:03;6.60;99.90
11188;DHT22;5650;52.700;7.306;2023-02-01T08:05:31;6.60;99.90
11188;DHT22;5650;52.700;7.306;2023-02-01T08:07:58;6.60;99.90
11188;DHT22;5650;52.700;7.306;2023-02-01T08:10:25;6.60;99.90
11188;DHT22;5650;52.700;7.306;2023-02-01T08:12:58;6.60;99.90
11188;DHT22;5650;52.700;7.306;2023-02-01T08:15:32;6.60;99.90
11188;DHT22;5650;52.700;7.306;2023-02-01T08:18:06;6.60;99.90
11188;DHT22;5650;52.700;7.306;2023-02-01T08:20:44;6.60;99.90
11188;DHT22;5650;52.700;7.306;2023-02-01T08:23:16;6.60;99.90
11188;DHT22;5650;52.700;7.306;2023-02-01T08:25:43;6.70;99.90
11188;DHT22;5650;52.700;7.306;2023-02-01T08:28:10;6.60;99.90
11188;DHT22;5650;52.700;7.306;2023-02-01T08:30:45;6.60;99.90
11188;DHT22;5650;52.700;7.306;2023-02-01T08:33:14;6.70;99.90
11188;DHT22;5650;52.700;7.306;2023-02-01T08:35:44;6.70;99.90
11188;DHT22;5650;52.700;7.306;2023-02-01T08:38:14;6.70;99.90
11188;DHT22;5650;52.700;7.306;2023-02-01T08:40:44;6.80;99.90
11188;DHT22;5650;52.700;7.306;2023-02-01T08:43:12;6.80;99.90
11188;DHT22;5650;52.700;7.306;2023-02-01T08:45:45;6.90;99.90
11188;DHT22;5650;52.700;7.306;2023-02-01T08:48:17;6.80;99.90
11188;DHT22;5650;52.700;7.306;2023-02-01T08:50:47;6.90;99.90
11188;DHT22;5650;52.700;7.306;2023-02-01T08:53:20;6.90;99.90
11188;DHT22;5650;52.700;7.306;2023-02-01T08:55:50;6.90;99.90
11188;DHT22;5650;52.700;7.306;2023-02-01T08:58:17;6.90;99.90
11188;DHT22;5650;52.700;7.306;2023-02-01T09:00:45;6.90;99.90
11188;DHT22;5650;52.700;7.306;2023-02-01T09:03:13;6.90;99.90
11188;DHT22;5650;52.700;7.306;2023-02-01T09:05:42;6.90;99.90
11188;DHT22;5650;52.700;7.306;2023-02-01T09:08:10;6.90;99.90
11188;DHT22;5650;52.700;7.306;2023-02-01T09:10:49;6.90;99.90
11188;DHT22;5650;52.700;7.306;2023-02-01T09:13:23;6.90;99.90
11188;DHT22;5650;52.700;7.306;2023-02-01T09:15:50;6.90;99.90
11188;DHT22;5650;52.700;7.306;2023-02-01T09:18:20;6.90;99.90
11188;DHT22;5650;52.700;7.306;2023-02-01T09:20:53;6.90;99.90
11188;DHT22;5650;52.700;7.306;2023-02-01T09:23:27;6.90;99.90
11188;DHT22;5650;52.700;7.306;2023-02-01T09:25:54;6.90;99.90
11188;DHT22;5650;52.700;7.306;2023-02-01T09:28:27;6.90;99.90
11188;DHT22;5650;52.700;7.306;2023-02-01T09:31:09;7.00;99.90
11188;DHT22;5650;52.700;7.306;2023-02-01T09:33:36;7.00;99.90
11188;DHT22;5650;52.700;7.306;2023-02-01T09:36:10;7.00;99.90
11188;DHT22;5650;52.700;7.306;2023-02-01T09:38:43;7.10;99.90
11188;DHT22;5650;52.700;7.306;2023-02-01T09:41:30;7.10;99.90
11188;DHT22;5650;52.700;7.306;2023-02-01T09:44:14;7.10;99.90
11188;DHT22;5650;52.700;7.306;2023-02-01T09:46:43;7.10;99.90
11188;DHT22;5650;52.700;7.306;2023-02-01T09:49:15;7.10;99.90
11188;DHT22;5650;52.700;7.306;2023-02-01T09:51:49;7.10;99.90
11188;DHT22;5650;52.700;7.306;2023-02-01T09:54:19;7.10;99.90
11188;DHT22;5650;52.700;7.306;2023-02-01T09:56:48;7.10;99.90
11188;DHT22;5650;52.700;7.306;2023-02-01T09:59:29;7.10;99.90
11188;DHT22;5650;52.700;7.306;2023-02-01T10:02:03;7.10;99.90
11188;DHT22;5650;52.700;7.306;2023-02-01T10:04:32;7.10;99.90
11188;DHT22;5650;52.700;7.306;2023-02-01T10:07:11;7.10;99.90
11188;DHT22;5650;52.700;7.306;2023-02-01T10:09:58;7.10;99.90
11188;DHT22;5650;52.700;7.306;2023-02-01T10:12:47;7.10;99.90
11188;DHT22;5650;52.700;7.306;2023-02-01T10:15:29;7.10;99.90
11188;DHT22;5650;52.700;7.306;2023-02-01T10:21:12;7.10;99.90
11188;DHT22;5650;52.700;7.306;2023-02-01T10:26:46;7.10;99.90
11188;DHT22;5650;52.700;7.306;2023-02-01T10:29:35;7.10;99.90
11188;DHT22;5650;52.700;7.306;2023-02-01T10:32:10;7.10;99.90
11188;DHT22;5650;52.700;7.306;2023-02-01T10:34:42;7.00;99.90
11188;DHT22;5650;52.700;7.306;2023-02-01T10:37:22;7.00;99.90
11188;DHT22;5650;52.700;7.306;2023-02-01T10:39:56;6.90;99.90
11188;DHT22;5650;52.700;7.306;2023-02-01T10:42:33;6.90;99.90
11188;DHT22;5650;52.700;7.306;2023-02-01T10:45:02;6.90;99.90
11188;DHT22;5650;52.700;7.306;2023-02-01T10:47:30;6.80;99.90
11188;DHT22;5650;52.700;7.306;2023-02-01T10:50:04;6.80;99.90
11188;DHT22;5650;52.700;7.306;2023-02-01T10:52:43;6.80;99.90
11188;DHT22;5650;52.700;7.306;2023-02-01T10:55:30;6.70;99.90
11188;DHT22;5650;52.700;7.306;2023-02-01T10:58:03;6.70;99.90
11188;DHT22;5650;52.700;7.306;2023-02-01T11:00:39;6.70;99.90
11188;DHT22;5650;52.700;7.306;2023-02-01T11:03:32;6.70;99.90
11188;DHT22;5650;52.700;7.306;2023-02-01T11:06:00;6.60;99.90
11188;DHT22;5650;52.700;7.306;2023-02-01T11:08:43;6.50;99.90
11188;DHT22;5650;52.700;7.306;2023-02-01T11:11:15;6.50;99.90
11188;DHT22;5650;52.700;7.306;2023-02-01T11:13:55;6.50;99.90
11188;DHT22;5650;52.700;7.306;2023-02-01T11:16:30;6.40;99.90
11188;DHT22;5650;52.700;7.306;2023-02-01T11:18:59;6.40;99.90
11188;DHT22;5650;52.700;7.306;2023-02-01T11:21:27;6.40;99.90
11188;DHT22;5650;52.700;7.306;2023-02-01T11:23:54;6.40;99.90
11188;DHT22;5650;52.700;7.306;2023-02-01T11:26:25;6.40;99.90
11188;DHT22;5650;52.700;7.306;2023-02-01T11:28:59;6.40;99.90
11188;DHT22;5650;52.700;7.306;2023-02-01T11:31:28;6.50;99.90
11188;DHT22;5650;52.700;7.306;2023-02-01T11:33:59;6.50;99.90
11188;DHT22;5650;52.700;7.306;2023-02-01T11:36:32;6.50;99.90
11188;DHT22;5650;52.700;7.306;2023-02-01T11:39:23;6.50;99.90
11188;DHT22;5650;52.700;7.306;2023-02-01T11:42:02;6.60;99.90
11188;DHT22;5650;52.700;7.306;2023-02-01T11:44:33;6.60;99.90
11188;DHT22;5650;52.700;7.306;2023-02-01T11:47:21;6.60;99.90
11188;DHT22;5650;52.700;7.306;2023-02-01T11:49:53;6.60;99.90
11188;DHT22;5650;52.700;7.306;2023-02-01T11:52:39;6.70;99.90
11188;DHT22;5650;52.700;7.306;2023-02-01T11:55:32;6.70;99.90
11188;DHT22;5650;52.700;7.306;2023-02-01T11:58:20;6.70;99.90
11188;DHT22;5650;52.700;7.306;2023-02-01T12:01:08;6.80;99.90
11188;DHT22;5650;52.700;7.306;2023-02-01T12:06:48;6.80;99.90
11188;DHT22;5650;52.700;7.306;2023-02-01T12:12:26;6.80;99.90
11188;DHT22;5650;52.700;7.306;2023-02-01T12:15:10;6.80;99.90
11188;DHT22;5650;52.700;7.306;2023-02-01T12:21:07;6.80;99.90
11188;DHT22;5650;52.700;7.306;2023-02-01T12:23:54;6.80;99.90
11188;DHT22;5650;52.700;7.306;2023-02-01T12:26:42;6.70;99.90
11188;DHT22;5650;52.700;7.306;2023-02-01T12:29:22;6.70;99.90
11188;DHT22;5650;52.700;7.306;2023-02-01T12:32:05;6.80;99.90
11188;DHT22;5650;52.700;7.306;2023-02-01T12:37:39;6.80;99.90
11188;DHT22;5650;52.700;7.306;2023-02-01T12:40:22;6.90;99.90
11188;DHT22;5650;52.700;7.306;2023-02-01T12:42:59;6.90;99.90
11188;DHT22;5650;52.700;7.306;2023-02-01T12:45:33;6.90;99.90
11188;DHT22;5650;52.700;7.306;2023-02-01T12:48:15;6.90;99.90
11188;DHT22;5650;52.700;7.306;2023-02-01T12:51:02;6.90;99.90
11188;DHT22;5650;52.700;7.306;2023-02-01T12:53:45;7.00;99.90
11188;DHT22;5650;52.700;7.306;2023-02-01T12:56:19;6.90;99.90
11188;DHT22;5650;52.700;7.306;2023-02-01T12:58:58;6.90;99.90
11188;DHT22;5650;52.700;7.306;2023-02-01T13:01:30;6.90;99.90
11188;DHT22;5650;52.700;7.306;2023-02-01T13:04:08;6.90;99.90
11188;DHT22;5650;52.700;7.306;2023-02-01T13:06:43;6.80;99.90
11188;DHT22;5650;52.700;7.306;2023-02-01T13:09:20;6.90;99.90
11188;DHT22;5650;52.700;7.306;2023-02-01T13:11:49;6.90;99.90
11188;DHT22;5650;52.700;7.306;2023-02-01T13:14:25;7.00;99.90
11188;DHT22;5650;52.700;7.306;2023-02-01T13:17:01;7.10;99.90
11188;DHT22;5650;52.700;7.306;2023-02-01T13:19:39;7.20;99.90
11188;DHT22;5650;52.700;7.306;2023-02-01T13:22:11;7.30;99.90
11188;DHT22;5650;52.700;7.306;2023-02-01T13:24:44;7.50;99.90
11188;DHT22;5650;52.700;7.306;2023-02-01T13:27:14;7.70;99.90
11188;DHT22;5650;52.700;7.306;2023-02-01T13:29:47;7.80;99.90
11188;DHT22;5650;52.700;7.306;2023-02-01T13:36:14;7.90;99.90
11188;DHT22;5650;52.700;7.306;2023-02-01T13:39:33;7.90;99.90
11188;DHT22;5650;52.700;7.306;2023-02-01T13:42:11;7.90;99.90
11188;DHT22;5650;52.700;7.306;2023-02-01T13:44:43;8.10;99.90
11188;DHT22;5650;52.700;7.306;2023-02-01T13:47:23;8.10;99.90
11188;DHT22;5650;52.700;7.306;2023-02-01T13:49:52;8.10;99.90
11188;DHT22;5650;52.700;7.306;2023-02-01T13:52:36;8.20;99.90
11188;DHT22;5650;52.700;7.306;2023-02-01T13:55:19;8.20;99.90
11188;DHT22;5650;52.700;7.306;2023-02-01T13:57:51;8.30;99.90
11188;DHT22;5650;52.700;7.306;2023-02-01T14:00:26;8.30;99.90
11188;DHT22;5650;52.700;7.306;2023-02-01T14:03:08;8.30;99.90
11188;DHT22;5650;52.700;7.306;2023-02-01T14:06:14;8.30;99.90
11188;DHT22;5650;52.700;7.306;2023-02-01T14:11:53;8.20;99.90
11188;DHT22;5650;52.700;7.306;2023-02-01T14:14:44;8.10;99.90
11188;DHT22;5650;52.700;7.306;2023-02-01T14:17:35;8.10;99.90
11188;DHT22;5650;52.700;7.306;2023-02-01T14:23:16;8.00;99.90
11188;DHT22;5650;52.700;7.306;2023-02-01T14:26:06;7.90;99.90
11188;DHT22;5650;52.700;7.306;2023-02-01T14:28:38;7.90;99.90
11188;DHT22;5650;52.700;7.306;2023-02-01T14:31:16;7.80;99.90
11188;DHT22;5650;52.700;7.306;2023-02-01T14:33:45;7.80;99.90
11188;DHT22;5650;52.700;7.306;2023-02-01T14:36:19;7.80;99.90
11188;DHT22;5650;52.700;7.306;2023-02-01T14:38:49;7.70;99.90
11188;DHT22;5650;52.700;7.306;2023-02-01T14:41:30;7.70;99.90
11188;DHT22;5650;52.700;7.306;2023-02-01T14:44:24;7.70;99.90
11188;DHT22;5650;52.700;7.306;2023-02-01T14:47:31;7.70;99.90
11188;DHT22;5650;52.700;7.306;2023-02-01T14:53:06;7.80;99.90
11188;DHT22;5650;52.700;7.306;2023-02-01T14:55:42;7.90;99.90
11188;DHT22;5650;52.700;7.306;2023-02-01T14:58:19;7.90;99.90
11188;DHT22;5650;52.700;7.306;2023-02-01T15:00:51;7.90;99.90
11188;DHT22;5650;52.700;7.306;2023-02-01T15:03:43;7.90;99.90
11188;DHT22;5650;52.700;7.306;2023-02-01T15:06:29;7.90;99.90
11188;DHT22;5650;52.700;7.306;2023-02-01T15:08:59;7.90;99.90
11188;DHT22;5650;52.700;7.306;2023-02-01T15:11:27;7.80;99.90
11188;DHT22;5650;52.700;7.306;2023-02-01T15:13:56;7.80;99.90
11188;DHT22;5650;52.700;7.306;2023-02-01T15:16:26;7.70;99.90
11188;DHT22;5650;52.700;7.306;2023-02-01T15:19:10;7.70;99.90
11188;DHT22;5650;52.700;7.306;2023-02-01T15:21:45;7.60;99.90
11188;DHT22;5650;52.700;7.306;2023-02-01T15:24:14;7.60;99.90
11188;DHT22;5650;52.700;7.306;2023-02-01T15:26:45;7.60;99.90
11188;DHT22;5650;52.700;7.306;2023-02-01T15:29:14;7.60;99.90
11188;DHT22;5650;52.700;7.306;2023-02-01T15:31:43;7.50;99.90
11188;DHT22;5650;52.700;7.306;2023-02-01T15:34:11;7.60;99.90
11188;DHT22;5650;52.700;7.306;2023-02-01T15:36:39;7.50;99.90
11188;DHT22;5650;52.700;7.306;2023-02-01T15:39:16;7.50;99.90
11188;DHT22;5650;52.700;7.306;2023-02-01T15:41:49;7.50;99.90
11188;DHT22;5650;52.700;7.306;2023-02-01T15:44:33;7.50;99.90
11188;DHT22;5650;52.700;7.306;2023-02-01T15:47:07;7.50;99.90
11188;DHT22;5650;52.700;7.306;2023-02-01T15:49:38;7.50;99.90
11188;DHT22;5650;52.700;7.306;2023-02-01T15:52:20;7.50;99.90
11188;DHT22;5650;52.700;7.306;2023-02-01T15:54:51;7.50;99.90
11188;DHT22;5650;52.700;7.306;2023-02-01T15:57:22;7.50;99.90
11188;DHT22;5650;52.700;7.306;2023-02-01T15:59:58;7.50;99.90
11188;DHT22;5650;52.700;7.306;2023-02-01T16:02:27;7.50;99.90
11188;DHT22;5650;52.700;7.306;2023-02-01T16:04:56;7.50;99.90
11188;DHT22;5650;52.700;7.306;2023-02-01T16:07:26;7.40;99.90
11188;DHT22;5650;52.700;7.306;2023-02-01T16:09:56;7.40;99.90
11188;DHT22;5650;52.700;7.306;2023-02-01T16:12:32;7.40;99.90
11188;DHT22;5650;52.700;7.306;2023-02-01T16:15:03;7.30;99.90
11188;DHT22;5650;52.700;7.306;2023-02-01T16:17:31;7.30;99.90
11188;DHT22;5650;52.700;7.306;2023-02-01T16:19:58;7.20;99.90
11188;DHT22;5650;52.700;7.306;2023-02-01T16:22:25;7.20;99.90
11188;DHT22;5650;52.700;7.306;2023-02-01T16:24:52;7.20;99.90
11188;DHT22;5650;52.700;7.306;2023-02-01T16:27:20;7.10;99.90
11188;DHT22;5650;52.700;7.306;2023-02-01T16:29:48;7.20;99.90
11188;DHT22;5650;52.700;7.306;2023-02-01T16:32:18;7.10;99.90
11188;DHT22;5650;52.700;7.306;2023-02-01T16:34:47;7.10;99.90
11188;DHT22;5650;52.700;7.306;2023-02-01T16:37:21;7.10;99.90
11188;DHT22;5650;52.700;7.306;2023-02-01T16:39:49;7.10;99.90
11188;DHT22;5650;52.700;7.306;2023-02-01T16:42:17;7.10;99.90
11188;DHT22;5650;52.700;7.306;2023-02-01T16:44:44;7.10;99.90
11188;DHT22;5650;52.700;7.306;2023-02-01T16:47:14;7.10;99.90
11188;DHT22;5650;52.700;7.306;2023-02-01T16:49:44;7.10;99.90
11188;DHT22;5650;52.700;7.306;2023-02-01T16:52:15;7.10;99.90
11188;DHT22;5650;52.700;7.306;2023-02-01T16:54:43;7.20;99.90
11188;DHT22;5650;52.700;7.306;2023-02-01T16:57:14;7.20;99.90
11188;DHT22;5650;52.700;7.306;2023-02-01T16:59:42;7.20;99.90
11188;DHT22;5650;52.700;7.306;2023-02-01T17:02:11;7.20;99.90
11188;DHT22;5650;52.700;7.306;2023-02-01T17:04:39;7.20;99.90
11188;DHT22;5650;52.700;7.306;2023-02-01T17:07:11;7.20;99.90
11188;DHT22;5650;52.700;7.306;2023-02-01T17:09:39;7.20;99.90
11188;DHT22;5650;52.700;7.306;2023-02-01T17:12:14;7.20;99.90
11188;DHT22;5650;52.700;7.306;2023-02-01T17:14:43;7.20;99.90
11188;DHT22;5650;52.700;7.306;2023-02-01T17:17:10;7.20;99.90
11188;DHT22;5650;52.700;7.306;2023-02-01T17:19:37;7.20;99.90
11188;DHT22;5650;52.700;7.306;2023-02-01T17:22:04;7.20;99.90
11188;DHT22;5650;52.700;7.306;2023-02-01T17:24:33;7.20;99.90
11188;DHT22;5650;52.700;7.306;2023-02-01T17:27:01;7.30;99.90